Time;durP1;ratioP1;P1;durP2;ratioP2;P2;SDS_P1;SDS_P2;PMS_P1;PMS_P2;Temp;Humidity;BMP_temperature;BMP_pressure;BME280_temperature;BME280_humidity;BME280_pressure;Samples;Min_cycle;Max_cycle;Signal;HPM_P1;HPM_P2
2023/10/14 00:00:27;;;;;;;;;;;;;;;-144.99;100.00;52558.16;5079221;28;19928;-64
2023/10/14 00:02:54;;;;;;;;;;;;;;;-144.99;100.00;52492.94;5063430;28;19998;-64
2023/10/14 00:05:22;;;;;;;;;;;;;;;-144.99;100.00;52480.72;5069237;28;19935;-64
2023/10/14 00:07:52;;;;;;;;;;;;;;;-144.99;100.00;52492.94;5067290;28;20327;-65
2023/10/14 00:10:22;;;;;;;;;;;;;;;-144.99;100.00;52476.63;5069669;28;20058;-65
2023/10/14 00:12:53;;;;;;;;;;;;;;;-144.99;100.00;52476.63;5085392;28;20324;-65
2023/10/14 00:15:19;;;;;;;;;;;;;;;-144.99;100.00;52501.09;5069335;28;19928;-65
2023/10/14 00:17:46;;;;;;;;;;;;;;;-144.99;100.00;52480.72;5068247;28;20035;-65
2023/10/14 00:20:14;;;;;;;;;;;;;;;-144.99;100.00;52525.56;5064393;28;19925;-64
2023/10/14 00:22:44;;;;;;;;;;;;;;;-144.99;100.00;52499.06;5068496;28;20212;-66
2023/10/14 00:25:19;;;;;;;;;;;;;;;-144.99;100.00;52484.78;5084023;28;20307;-67
2023/10/14 00:27:45;;;;;;;;;;;;;;;-144.99;100.00;52460.31;5069150;28;20319;-66
2023/10/14 00:30:12;;;;;;;;;;;;;;;-144.99;100.00;52501.09;5073056;28;19929;-66
2023/10/14 00:32:39;;;;;;;;;;;;;;;-144.99;100.00;52517.41;5068422;28;20305;-66
2023/10/14 00:35:09;;;;;;;;;;;;;;;-144.99;100.00;52490.91;5069171;28;20019;-66
2023/10/14 00:37:36;;;;;;;;;;;;;;;-144.99;100.00;52529.63;5068392;28;19925;-68
2023/10/14 00:40:10;;;;;;;;;;;;;;;-144.99;100.00;52480.72;5061703;28;20013;-67
2023/10/14 00:42:37;;;;;;;;;;;;;;;-144.99;100.00;52503.13;5068155;28;19924;-67
2023/10/14 00:45:09;;;;;;;;;;;;;;;-144.99;100.00;52448.09;5068806;28;20021;-68
2023/10/14 00:47:36;;;;;;;;;;;;;;;-144.99;100.00;52478.66;5068813;28;20023;-67
2023/10/14 00:50:12;;;;;;;;;;;;;;;-144.99;100.00;52480.72;5071596;28;19979;-66
2023/10/14 00:52:40;;;;;;;;;;;;;;;-144.99;100.00;52507.19;5068323;28;19936;-66
2023/10/14 00:55:13;;;;;;;;;;;;;;;-144.99;100.00;52529.63;5070440;28;19928;-66
2023/10/14 00:57:45;;;;;;;;;;;;;;;-144.99;100.00;52517.41;5073323;28;19928;-60
2023/10/14 01:00:12;;;;;;;;;;;;;;;-144.99;100.00;52480.72;5069563;28;19924;-60
2023/10/14 01:02:39;;;;;;;;;;;;;;;-144.99;100.00;52497.00;5068439;28;19924;-59
2023/10/14 01:05:09;;;;;;;;;;;;;;;-144.99;100.00;52460.31;5068509;28;19975;-65
2023/10/14 01:07:38;;;;;;;;;;;;;;;-144.99;100.00;52521.47;5070004;28;20369;-64
2023/10/14 01:10:06;;;;;;;;;;;;;;;-144.99;100.00;52545.94;5066049;28;20116;-64
2023/10/14 01:12:39;;;;;;;;;;;;;;;-144.99;100.00;52486.81;5073970;28;20296;-66
2023/10/14 01:15:13;;;;;;;;;;;;;;;-144.99;100.00;52488.84;5064981;28;19925;-64
2023/10/14 01:17:42;;;;;;;;;;;;;;;-144.99;100.00;52497.00;5085988;28;20375;-64
2023/10/14 01:20:26;;;;;;;;;;;;;;;-144.99;100.00;52472.56;5073119;28;20023;-64
2023/10/14 01:22:57;;;;;;;;;;;;;;;-144.99;100.00;52517.41;5069079;28;20021;-65
2023/10/14 01:25:29;;;;;;;;;;;;;;;-144.99;100.00;52523.50;5081684;28;19959;-65
2023/10/14 01:27:59;;;;;;;;;;;;;;;-144.99;100.00;52525.56;5069179;28;20304;-65
2023/10/14 01:30:26;;;;;;;;;;;;;;;-144.99;100.00;52509.25;5072161;28;19928;-65
2023/10/14 01:32:57;;;;;;;;;;;;;;;-144.99;100.00;52480.72;5065161;28;19924;-65
2023/10/14 01:35:26;;;;;;;;;;;;;;;-144.99;100.00;52472.56;5072377;28;20007;-65
2023/10/14 01:37:55;;;;;;;;;;;;;;;-144.99;100.00;52517.41;5070540;28;19925;-64
2023/10/14 01:40:28;;;;;;;;;;;;;;;-144.99;100.00;52517.41;5072095;28;19929;-65
2023/10/14 01:42:57;;;;;;;;;;;;;;;-144.99;100.00;52525.56;5064880;28;20030;-65
2023/10/14 01:45:27;;;;;;;;;;;;;;;-144.99;100.00;52501.09;5072022;28;19928;-65
2023/10/14 01:48:05;;;;;;;;;;;;;;;-144.99;100.00;52497.00;5064823;28;20023;-66
2023/10/14 01:50:32;;;;;;;;;;;;;;;-144.99;100.00;52492.94;5073144;28;20356;-66
2023/10/14 01:53:08;;;;;;;;;;;;;;;-144.99;100.00;52484.78;5075442;28;19960;-66
2023/10/14 01:55:35;;;;;;;;;;;;;;;-144.99;100.00;52472.56;5079526;28;20019;-65
2023/10/14 01:58:02;;;;;;;;;;;;;;;-144.99;100.00;52452.16;5079054;28;20705;-65
2023/10/14 02:00:35;;;;;;;;;;;;;;;-144.99;100.00;52501.09;5072145;28;20292;-66
2023/10/14 02:03:06;;;;;;;;;;;;;;;-144.99;100.00;52492.94;5069782;28;20051;-66
2023/10/14 02:05:34;;;;;;;;;;;;;;;-144.99;100.00;52499.06;5070490;28;19930;-66
2023/10/14 02:08:02;;;;;;;;;;;;;;;-144.99;100.00;52476.63;5072343;28;19932;-66
2023/10/14 02:10:35;;;;;;;;;;;;;;;-144.99;100.00;52525.56;5071503;28;19928;-63
2023/10/14 02:13:02;;;;;;;;;;;;;;;-144.99;100.00;52523.50;5067264;28;19925;-62
2023/10/14 02:15:28;;;;;;;;;;;;;;;-144.99;100.00;52521.47;5081285;28;20440;-62
2023/10/14 02:17:55;;;;;;;;;;;;;;;-144.99;100.00;52513.31;5081986;28;19928;-61
2023/10/14 02:20:27;;;;;;;;;;;;;;;-144.99;100.00;52501.09;5072474;28;19955;-62
2023/10/14 02:22:57;;;;;;;;;;;;;;;-144.99;100.00;52529.63;5072764;28;19929;-63
2023/10/14 02:25:27;;;;;;;;;;;;;;;-144.99;100.00;52521.47;5072598;28;20063;-63
2023/10/14 02:27:54;;;;;;;;;;;;;;;-144.99;100.00;52537.78;5069593;28;20381;-65
2023/10/14 02:30:20;;;;;;;;;;;;;;;-144.99;100.00;52513.31;5072601;28;19932;-67
2023/10/14 02:32:48;;;;;;;;;;;;;;;-144.99;100.00;52519.44;5069481;28;19928;-66
2023/10/14 02:35:15;;;;;;;;;;;;;;;-144.99;100.00;52499.06;5069881;28;19928;-66
2023/10/14 02:37:41;;;;;;;;;;;;;;;-144.99;100.00;52517.41;5071940;28;19924;-66
2023/10/14 02:40:12;;;;;;;;;;;;;;;-144.99;100.00;52505.16;5074051;28;20393;-66
2023/10/14 02:42:41;;;;;;;;;;;;;;;-144.99;100.00;52529.63;5070851;28;19924;-66
2023/10/14 02:45:12;;;;;;;;;;;;;;;-144.99;100.00;52513.31;5061809;28;19925;-66
2023/10/14 02:47:40;;;;;;;;;;;;;;;-144.99;100.00;52529.63;5078773;28;19932;-67
2023/10/14 02:50:11;;;;;;;;;;;;;;;-144.99;100.00;52533.69;5082672;28;20396;-66
2023/10/14 02:52:39;;;;;;;;;;;;;;;-144.99;100.00;52509.25;5079927;28;19932;-66
2023/10/14 02:55:21;;;;;;;;;;;;;;;-144.99;100.00;52472.56;5061782;28;19924;-66
2023/10/14 02:57:49;;;;;;;;;;;;;;;-144.99;100.00;52513.31;5070305;28;20297;-67
2023/10/14 03:00:20;;;;;;;;;;;;;;;-144.99;100.00;52488.84;5070353;28;20033;-66
2023/10/14 03:02:50;;;;;;;;;;;;;;;-144.99;100.00;52492.94;5070360;28;19925;-65
2023/10/14 03:05:32;;;;;;;;;;;;;;;-144.99;100.00;52509.25;5066862;28;20059;-63
2023/10/14 03:08:06;;;;;;;;;;;;;;;-144.99;100.00;52529.63;5063861;28;19924;-66
2023/10/14 03:10:35;;;;;;;;;;;;;;;-144.99;100.00;52537.78;5079150;28;19936;-63
2023/10/14 03:13:03;;;;;;;;;;;;;;;-144.99;100.00;52517.41;5073944;28;19928;-63
2023/10/14 03:15:32;;;;;;;;;;;;;;;-144.99;100.00;52501.09;5066039;28;20396;-63
2023/10/14 03:18:01;;;;;;;;;;;;;;;-144.99;100.00;52497.00;5071674;28;19935;-65
2023/10/14 03:20:39;;;;;;;;;;;;;;;-144.99;100.00;52507.19;5083408;28;19928;-62
2023/10/14 03:23:17;;;;;;;;;;;;;;;-144.99;100.00;52515.34;5069402;28;19925;-62
2023/10/14 03:25:44;;;;;;;;;;;;;;;-144.99;100.00;52541.84;5070752;28;21159;-61
2023/10/14 03:28:14;;;;;;;;;;;;;;;-144.99;100.00;52525.56;5065396;28;19924;-62
2023/10/14 03:30:44;;;;;;;;;;;;;;;-144.99;100.00;52545.94;5070149;28;19932;-67
2023/10/14 03:33:11;;;;;;;;;;;;;;;-144.99;100.00;52521.47;5074507;28;20197;-69
2023/10/14 03:35:39;;;;;;;;;;;;;;;-144.99;100.00;52517.41;5073634;28;19932;-70
2023/10/14 03:38:15;;;;;;;;;;;;;;;-144.99;100.00;52474.59;5075234;28;19947;-68
2023/10/14 03:43:23;;;;;;;;;;;;;;;-144.99;100.00;52513.31;5073993;28;20359;-69
2023/10/14 03:45:53;;;;;;;;;;;;;;;-144.99;100.00;52515.34;5067917;28;19935;-68
2023/10/14 03:48:21;;;;;;;;;;;;;;;-144.99;100.00;52523.50;5069455;28;20431;-69
2023/10/14 03:50:48;;;;;;;;;;;;;;;-144.99;100.00;52564.28;5071828;28;19951;-68
2023/10/14 03:53:14;;;;;;;;;;;;;;;-144.99;100.00;52525.56;5069559;28;19931;-68
2023/10/14 03:55:43;;;;;;;;;;;;;;;-144.99;100.00;52537.78;5062563;28;19925;-71
2023/10/14 03:58:10;;;;;;;;;;;;;;;-144.99;100.00;52501.09;5069587;28;20269;-69
2023/10/14 04:00:43;;;;;;;;;;;;;;;-144.99;100.00;52497.00;5070076;28;19925;-71
2023/10/14 04:03:12;;;;;;;;;;;;;;;-144.99;100.00;52558.16;5069179;28;19931;-71
2023/10/14 04:05:46;;;;;;;;;;;;;;;-144.99;100.00;52517.41;5065247;28;20203;-66
2023/10/14 04:08:13;;;;;;;;;;;;;;;-144.99;100.00;52484.78;5064353;28;19943;-63
2023/10/14 04:10:45;;;;;;;;;;;;;;;-144.99;100.00;52570.38;5077355;28;19959;-64
2023/10/14 04:13:14;;;;;;;;;;;;;;;-144.99;100.00;52503.13;5077028;28;20343;-63
2023/10/14 04:15:50;;;;;;;;;;;;;;;-144.99;100.00;52513.31;5076647;28;19935;-63
2023/10/14 04:18:24;;;;;;;;;;;;;;;-144.99;100.00;52537.78;5071300;28;19925;-64
2023/10/14 04:21:04;;;;;;;;;;;;;;;-144.99;100.00;52539.81;5069812;28;20018;-64
2023/10/14 04:23:38;;;;;;;;;;;;;;;-144.99;100.00;52523.50;5066337;28;19935;-62
2023/10/14 04:26:11;;;;;;;;;;;;;;;-144.99;100.00;52513.31;5069273;28;19928;-65
2023/10/14 04:28:39;;;;;;;;;;;;;;;-144.99;100.00;52501.09;5065061;28;19935;-64
2023/10/14 04:31:09;;;;;;;;;;;;;;;-144.99;100.00;52497.00;5069727;28;20180;-68
2023/10/14 04:33:44;;;;;;;;;;;;;;;-144.99;100.00;52513.31;5068620;28;19924;-67
2023/10/14 04:36:36;;;;;;;;;;;;;;;-144.99;100.00;52513.31;5069480;28;20328;-67
2023/10/14 04:39:12;;;;;;;;;;;;;;;-144.99;100.00;52497.00;5068083;28;19928;-67
2023/10/14 04:41:48;;;;;;;;;;;;;;;-144.99;100.00;52525.56;5069313;28;20395;-66
2023/10/14 04:44:14;;;;;;;;;;;;;;;-144.99;100.00;52492.94;5067614;28;19924;-66
2023/10/14 04:46:54;;;;;;;;;;;;;;;-144.99;100.00;52523.50;5069452;28;20415;-69
2023/10/14 04:49:35;;;;;;;;;;;;;;;-144.99;100.00;52529.63;5059789;28;19947;-69
2023/10/14 04:52:04;;;;;;;;;;;;;;;-144.99;100.00;52505.16;5063821;28;19963;-68
2023/10/14 04:54:34;;;;;;;;;;;;;;;-144.99;100.00;52525.56;5069253;28;19929;-68
2023/10/14 04:57:19;;;;;;;;;;;;;;;-144.99;100.00;52547.97;5069434;28;20023;-67
2023/10/14 04:59:46;;;;;;;;;;;;;;;-144.99;100.00;52517.41;5068179;28;19932;-68
2023/10/14 05:02:20;;;;;;;;;;;;;;;-144.99;100.00;52550.00;5068437;28;20130;-67
2023/10/14 05:04:47;;;;;;;;;;;;;;;-144.99;100.00;52503.13;5067787;28;20432;-66
2023/10/14 05:07:15;;;;;;;;;;;;;;;-144.99;100.00;52497.00;5063978;28;20011;-65
2023/10/14 05:09:49;;;;;;;;;;;;;;;-144.99;100.00;52529.63;5061589;28;20007;-66
2023/10/14 05:12:18;;;;;;;;;;;;;;;-144.99;100.00;52541.84;5076682;28;19924;-66
2023/10/14 05:14:44;;;;;;;;;;;;;;;-144.99;100.00;52533.69;5079575;28;19975;-67
2023/10/14 05:17:16;;;;;;;;;;;;;;;-144.99;100.00;52541.84;5067133;28;19955;-67
2023/10/14 05:19:47;;;;;;;;;;;;;;;-144.99;100.00;52509.25;5065293;28;20397;-66
2023/10/14 05:22:18;;;;;;;;;;;;;;;-144.99;100.00;52513.31;5062034;28;20297;-65
2023/10/14 05:24:48;;;;;;;;;;;;;;;-144.99;100.00;52566.31;5068197;28;19944;-65
2023/10/14 05:27:15;;;;;;;;;;;;;;;-144.99;100.00;52545.94;5063792;28;19931;-67
2023/10/14 05:29:41;;;;;;;;;;;;;;;-144.99;100.00;52521.47;5068133;28;19924;-67
2023/10/14 05:32:11;;;;;;;;;;;;;;;-144.99;100.00;52525.56;5063389;28;20326;-66
2023/10/14 05:34:38;;;;;;;;;;;;;;;-144.99;100.00;52529.63;5076378;28;19924;-67
2023/10/14 05:37:09;;;;;;;;;;;;;;;-144.99;100.00;52517.41;5068559;28;20024;-67
2023/10/14 05:39:37;;;;;;;;;;;;;;;-144.99;100.00;52533.69;5069882;28;19924;-65
2023/10/14 05:42:13;;;;;;;;;;;;;;;-144.99;100.00;52537.78;5066276;28;19924;-65
2023/10/14 05:44:46;;;;;;;;;;;;;;;-144.99;100.00;52509.25;5067774;28;20282;-66
2023/10/14 05:47:13;;;;;;;;;;;;;;;-144.99;100.00;52558.16;5066173;28;19925;-65
2023/10/14 05:49:39;;;;;;;;;;;;;;;-144.99;100.00;52515.34;5075468;28;20374;-62
2023/10/14 05:52:08;;;;;;;;;;;;;;;-144.99;100.00;52554.09;5064507;28;20100;-67
2023/10/14 05:54:35;;;;;;;;;;;;;;;-144.99;100.00;52556.13;5060260;28;19935;-67
2023/10/14 05:57:02;;;;;;;;;;;;;;;-144.99;100.00;52533.69;5068151;28;19947;-66
2023/10/14 05:59:29;;;;;;;;;;;;;;;-144.99;100.00;52488.84;5067687;28;19976;-68
2023/10/14 06:01:56;;;;;;;;;;;;;;;-144.99;100.00;52545.94;5069496;28;19932;-67
2023/10/14 06:04:22;;;;;;;;;;;;;;;-144.99;100.00;52558.16;5079439;28;20043;-67
2023/10/14 06:06:49;;;;;;;;;;;;;;;-144.99;100.00;52523.50;5072772;28;20026;-68
2023/10/14 06:09:17;;;;;;;;;;;;;;;-144.99;100.00;52558.16;5072891;28;20158;-67
2023/10/14 06:11:45;;;;;;;;;;;;;;;-144.99;100.00;52497.00;5079420;28;19935;-69
2023/10/14 06:14:12;;;;;;;;;;;;;;;-144.99;100.00;52554.09;5066808;28;19933;-66
2023/10/14 06:16:39;;;;;;;;;;;;;;;-144.99;100.00;52523.50;5072100;28;20382;-68
2023/10/14 06:19:05;;;;;;;;;;;;;;;-144.99;100.00;52556.13;5078074;28;20028;-69
2023/10/14 06:21:33;;;;;;;;;;;;;;;-144.99;100.00;52517.41;5071525;28;19924;-70
2023/10/14 06:24:00;;;;;;;;;;;;;;;-144.99;100.00;52521.47;5067714;28;19931;-67
2023/10/14 06:26:28;;;;;;;;;;;;;;;-144.99;100.00;52521.47;5063221;28;20062;-66
2023/10/14 06:28:57;;;;;;;;;;;;;;;-144.99;100.00;52513.31;5071213;28;19928;-64
2023/10/14 06:31:23;;;;;;;;;;;;;;;-144.99;100.00;52537.78;5070743;28;20304;-64
2023/10/14 06:33:50;;;;;;;;;;;;;;;-144.99;100.00;52513.31;5070580;28;19956;-65
2023/10/14 06:36:17;;;;;;;;;;;;;;;-144.99;100.00;52501.09;5062059;28;19994;-64
2023/10/14 06:38:45;;;;;;;;;;;;;;;-144.99;100.00;52501.09;5070290;28;19924;-62
2023/10/14 06:41:13;;;;;;;;;;;;;;;-144.99;100.00;52505.16;5070785;28;19931;-64
2023/10/14 06:43:43;;;;;;;;;;;;;;;-144.99;100.00;52501.09;5078939;28;19978;-64
2023/10/14 06:46:11;;;;;;;;;;;;;;;-144.99;100.00;52541.84;5063012;28;19933;-63
2023/10/14 06:48:38;;;;;;;;;;;;;;;-144.99;100.00;52560.19;5078973;28;19971;-70
2023/10/14 06:51:06;;;;;;;;;;;;;;;-144.99;100.00;52533.69;5075616;28;20015;-70
2023/10/14 06:53:34;;;;;;;;;;;;;;;-144.99;100.00;52539.81;5067378;28;20393;-68
2023/10/14 06:56:01;;;;;;;;;;;;;;;-144.99;100.00;52521.47;5071597;28;20343;-66
2023/10/14 06:58:29;;;;;;;;;;;;;;;-144.99;100.00;52492.94;5071311;28;20005;-67
2023/10/14 07:00:58;;;;;;;;;;;;;;;-144.99;100.00;52533.69;5071447;28;19928;-66
2023/10/14 07:03:25;;;;;;;;;;;;;;;-144.99;100.00;52547.97;5069145;28;20368;-71
2023/10/14 07:05:56;;;;;;;;;;;;;;;-144.99;100.00;52529.63;5069406;28;20006;-70
2023/10/14 07:08:23;;;;;;;;;;;;;;;-144.99;100.00;52533.69;5072380;28;19959;-69
2023/10/14 07:10:51;;;;;;;;;;;;;;;-144.99;100.00;52523.50;5069773;28;20397;-71
2023/10/14 07:13:19;;;;;;;;;;;;;;;-144.99;100.00;52533.69;5068926;28;20024;-70
2023/10/14 07:15:45;;;;;;;;;;;;;;;-144.99;100.00;52529.63;5071046;28;20061;-70
2023/10/14 07:18:14;;;;;;;;;;;;;;;-144.99;100.00;52517.41;5075866;28;19925;-71
2023/10/14 07:20:41;;;;;;;;;;;;;;;-144.99;100.00;52554.09;5088536;28;20056;-73
2023/10/14 07:23:08;;;;;;;;;;;;;;;-144.99;100.00;52476.63;5071073;28;19947;-71
2023/10/14 07:25:37;;;;;;;;;;;;;;;-144.99;100.00;52484.78;5067373;28;19929;-71
2023/10/14 07:28:07;;;;;;;;;;;;;;;-144.99;100.00;52505.16;5072716;28;19925;-73
2023/10/14 07:30:34;;;;;;;;;;;;;;;-144.99;100.00;52529.63;5071288;28;20377;-69
2023/10/14 07:33:01;;;;;;;;;;;;;;;-144.99;100.00;52513.31;5070946;28;19924;-69
2023/10/14 07:35:31;;;;;;;;;;;;;;;-144.99;100.00;52468.47;5069330;28;19928;-70
2023/10/14 07:37:58;;;;;;;;;;;;;;;-144.99;100.00;52513.31;5074992;28;19924;-70
2023/10/14 07:40:27;;;;;;;;;;;;;;;-144.99;100.00;52482.75;5067834;28;19932;-70
2023/10/14 07:42:54;;;;;;;;;;;;;;;-144.99;100.00;52497.00;5074860;28;19947;-70
2023/10/14 07:45:21;;;;;;;;;;;;;;;-144.99;99.46;52503.13;5071813;28;20369;-71
2023/10/14 07:47:48;;;;;;;;;;;;;;;-144.99;98.89;52499.06;5066153;28;19924;-72
2023/10/14 07:50:15;;;;;;;;;;;;;;;-144.99;98.37;52533.69;5072195;28;19925;-72
2023/10/14 07:52:43;;;;;;;;;;;;;;;-144.99;97.74;52460.31;5073543;28;20448;-71
2023/10/14 07:55:15;;;;;;;;;;;;;;;-144.99;97.78;52492.94;5067884;28;19958;-71
2023/10/14 07:57:41;;;;;;;;;;;;;;;-144.99;97.03;52468.47;5066984;28;19940;-71
2023/10/14 08:00:12;;;;;;;;;;;;;;;-144.99;96.33;52468.47;5074415;28;19924;-73
2023/10/14 08:02:39;;;;;;;;;;;;;;;-144.99;95.96;52435.88;5068003;28;19931;-73
2023/10/14 08:05:07;;;;;;;;;;;;;;;-144.99;93.60;52486.81;5071918;28;20059;-72
2023/10/14 08:07:34;;;;;;;;;;;;;;;-144.99;93.85;52492.94;5064247;28;20882;-70
2023/10/14 08:10:16;;;;;;;;;;;;;;;-144.99;93.21;52476.63;5070933;28;20192;-71
2023/10/14 08:12:43;;;;;;;;;;;;;;;-144.99;93.68;52484.78;5070679;28;20438;-71
2023/10/14 08:15:10;;;;;;;;;;;;;;;-144.99;93.95;52550.00;5070529;28;19924;-71
2023/10/14 08:17:37;;;;;;;;;;;;;;;-144.99;94.43;52501.09;5075711;28;19936;-72
2023/10/14 08:20:12;;;;;;;;;;;;;;;-144.99;95.03;52499.06;5072960;28;20389;-71
2023/10/14 08:22:38;;;;;;;;;;;;;;;-144.99;94.74;52537.78;5071804;28;20014;-74
2023/10/14 08:25:07;;;;;;;;;;;;;;;-144.99;93.87;52460.31;5068394;28;20031;-73
2023/10/14 08:27:34;;;;;;;;;;;;;;;-144.99;93.96;52513.31;5068872;28;20310;-71
2023/10/14 08:30:01;;;;;;;;;;;;;;;-144.99;93.49;52525.56;5062711;28;20023;-73
2023/10/14 08:32:27;;;;;;;;;;;;;;;-144.99;93.11;52501.09;5069023;28;20019;-70
2023/10/14 08:34:56;;;;;;;;;;;;;;;-144.99;92.08;52501.09;5073950;28;19931;-71
2023/10/14 08:37:22;;;;;;;;;;;;;;;-144.99;92.79;52484.78;5068401;28;20163;-72
2023/10/14 08:39:49;;;;;;;;;;;;;;;-144.99;92.02;52517.41;5068440;28;20012;-73
2023/10/14 08:42:17;;;;;;;;;;;;;;;-144.99;92.00;52521.47;5069872;28;19970;-73
2023/10/14 08:44:45;;;;;;;;;;;;;;;-144.99;91.60;52482.75;5066610;28;20316;-71
2023/10/14 08:47:14;;;;;;;;;;;;;;;-144.99;90.37;52488.84;5067627;28;19925;-72
2023/10/14 08:49:41;;;;;;;;;;;;;;;-144.99;88.73;52513.31;5068774;28;19979;-73
2023/10/14 08:52:09;;;;;;;;;;;;;;;-144.99;88.29;52484.78;5069755;28;20385;-73
2023/10/14 08:54:37;;;;;;;;;;;;;;;-144.99;86.82;52497.00;5071260;28;19983;-73
2023/10/14 08:57:05;;;;;;;;;;;;;;;-144.99;85.51;52488.84;5066647;28;19925;-72
2023/10/14 08:59:33;;;;;;;;;;;;;;;-144.99;85.05;52466.44;5074241;28;19932;-71
2023/10/14 09:02:00;;;;;;;;;;;;;;;-144.99;84.48;52482.75;5078070;28;20015;-71
2023/10/14 09:04:27;;;;;;;;;;;;;;;-144.99;83.68;52499.06;5068343;28;20021;-73
2023/10/14 09:06:53;;;;;;;;;;;;;;;-144.99;84.24;52488.84;5058338;28;19924;-72
2023/10/14 09:09:23;;;;;;;;;;;;;;;-144.99;83.06;52468.47;5070421;28;20015;-72
2023/10/14 09:11:51;;;;;;;;;;;;;;;-144.99;82.71;52462.34;5069727;28;19950;-72
2023/10/14 09:14:18;;;;;;;;;;;;;;;-144.99;80.48;52480.72;5072936;28;19928;-72
2023/10/14 09:16:49;;;;;;;;;;;;;;;-144.99;80.27;52484.78;5064372;28;19987;-73
2023/10/14 09:19:16;;;;;;;;;;;;;;;-144.99;80.36;52476.63;5075232;28;20168;-73
2023/10/14 09:21:43;;;;;;;;;;;;;;;-144.99;81.61;52509.25;5069841;28;20014;-71
2023/10/14 09:24:10;;;;;;;;;;;;;;;-144.99;81.12;52458.28;5069573;28;19928;-71
2023/10/14 09:26:37;;;;;;;;;;;;;;;-144.99;79.33;52472.56;5064441;28;20045;-71
2023/10/14 09:29:04;;;;;;;;;;;;;;;-144.99;78.36;52476.63;5076232;28;20004;-69
2023/10/14 09:31:31;;;;;;;;;;;;;;;-144.99;76.94;52441.97;5070833;28;20015;-71
2023/10/14 09:33:59;;;;;;;;;;;;;;;-144.99;75.29;52456.25;5076978;28;19924;-69
2023/10/14 09:36:26;;;;;;;;;;;;;;;-144.99;75.38;52464.41;5080999;28;19924;-73
2023/10/14 09:38:52;;;;;;;;;;;;;;;-144.99;75.34;52415.47;5070564;28;19974;-72
2023/10/14 09:41:19;;;;;;;;;;;;;;;-144.99;74.50;52437.91;5079781;28;19946;-71
2023/10/14 09:43:46;;;;;;;;;;;;;;;-144.99;74.01;52464.41;5073794;28;19995;-72
2023/10/14 09:46:16;;;;;;;;;;;;;;;-144.99;79.07;52488.84;5073601;28;19968;-69
2023/10/14 09:48:44;;;;;;;;;;;;;;;-144.99;79.85;52517.41;5065571;28;19924;-70
2023/10/14 09:51:13;;;;;;;;;;;;;;;-144.99;81.91;52550.00;5073507;28;19928;-68
2023/10/14 09:53:39;;;;;;;;;;;;;;;-144.99;89.00;52590.78;5070938;28;20347;-70
2023/10/14 09:56:07;;;;;;;;;;;;;;;-144.99;99.05;52611.16;5067968;28;19943;-68
2023/10/14 09:58:35;;;;;;;;;;;;;;;-144.99;100.00;52582.63;5070848;28;19954;-69
2023/10/14 10:01:03;;;;;;;;;;;;;;;-144.99;100.00;52615.25;5068056;28;19929;-68
2023/10/14 10:03:33;;;;;;;;;;;;;;;-144.99;100.00;52562.25;5096043;22;19932;-68
2023/10/14 10:06:22;;;;;;;;;;;;;;;-144.99;100.00;52578.53;5074453;28;19928;-67
2023/10/14 10:09:04;;;;;;;;;;;;;;;-144.99;100.00;52572.44;5087394;28;19935;-67
2023/10/14 10:11:33;;;;;;;;;;;;;;;-144.99;100.00;52558.16;5064319;28;19981;-66
2023/10/14 10:14:00;;;;;;;;;;;;;;;-144.99;100.00;52594.84;5072718;28;20024;-67
2023/10/14 10:16:30;;;;;;;;;;;;;;;-144.99;100.00;52562.25;5084266;28;19928;-67
2023/10/14 10:18:57;;;;;;;;;;;;;;;-144.99;100.00;52529.63;5076736;28;19990;-67
2023/10/14 10:21:29;;;;;;;;;;;;;;;-144.99;100.00;52550.00;5074627;28;20383;-67
2023/10/14 10:24:00;;;;;;;;;;;;;;;-144.99;97.03;52399.19;5089332;28;19928;-67
2023/10/14 10:26:27;;;;;;;;;;;;;;;-144.99;93.84;52366.56;5073532;28;19975;-68
2023/10/14 10:28:53;;;;;;;;;;;;;;;-144.99;82.85;52378.78;5077489;28;20419;-68
2023/10/14 10:31:21;;;;;;;;;;;;;;;-144.99;78.86;52492.94;5073169;28;19978;-68
2023/10/14 10:33:59;;;;;;;;;;;;;;;-144.99;77.83;52384.91;5081433;28;19924;-68
2023/10/14 10:36:28;;;;;;;;;;;;;;;-144.99;72.92;52313.56;5080775;28;20047;-68
2023/10/14 10:38:54;;;;;;;;;;;;;;;-144.99;70.96;52268.72;5071399;28;19970;-69
2023/10/14 10:41:25;;;;;;;;;;;;;;;-144.99;66.65;52232.03;5075034;28;19925;-69
2023/10/14 10:43:52;;;;;;;;;;;;;;;-144.99;65.46;52207.59;5074332;28;19932;-69
2023/10/14 10:46:31;;;;;;;;;;;;;;;-144.99;61.44;52209.63;5085895;28;20338;-70
2023/10/14 10:48:57;;;;;;;;;;;;;;;-144.99;60.54;52164.78;5077642;28;20081;-69
2023/10/14 10:51:25;;;;;;;;;;;;;;;-144.99;58.66;52285.03;5078184;28;20022;-69
2023/10/14 10:53:53;;;;;;;;;;;;;;;-144.99;59.78;52346.19;5081529;28;20044;-69
2023/10/14 10:56:20;;;;;;;;;;;;;;;-144.99;61.85;52419.56;5086166;28;19924;-70
2023/10/14 10:58:47;;;;;;;;;;;;;;;-144.99;63.81;52439.94;5081479;28;19932;-70
2023/10/14 11:01:14;;;;;;;;;;;;;;;-144.99;66.94;52476.63;5086084;28;20426;-69
2023/10/14 11:03:43;;;;;;;;;;;;;;;-144.99;69.26;52492.94;5078267;28;20012;-69
2023/10/14 11:06:13;;;;;;;;;;;;;;;-144.99;71.23;52509.25;5074613;28;20093;-69
2023/10/14 11:08:40;;;;;;;;;;;;;;;-144.99;74.20;52558.16;5080233;28;19994;-70
2023/10/14 11:11:08;;;;;;;;;;;;;;;-144.99;79.97;52550.00;5082296;28;19932;-67
2023/10/14 11:13:36;;;;;;;;;;;;;;;-144.99;85.13;52562.25;5082860;28;19924;-67
2023/10/14 11:16:11;;;;;;;;;;;;;;;-144.99;87.32;52558.16;5083277;28;19997;-67
2023/10/14 11:18:45;;;;;;;;;;;;;;;-144.99;88.93;52562.25;5087346;28;20341;-68
2023/10/14 11:21:12;;;;;;;;;;;;;;;-144.99;91.28;52586.69;5069787;28;19924;-68
2023/10/14 11:23:39;;;;;;;;;;;;;;;-144.99;92.33;52554.09;5070282;28;20270;-68
2023/10/14 11:26:08;;;;;;;;;;;;;;;-144.99;94.29;52578.53;5080544;28;20457;-68
2023/10/14 11:28:37;;;;;;;;;;;;;;;-144.99;95.23;52588.75;5078109;28;20019;-67
2023/10/14 11:31:07;;;;;;;;;;;;;;;-144.99;96.74;52566.31;5070372;28;19930;-68
2023/10/14 11:33:34;;;;;;;;;;;;;;;-144.99;97.36;52554.09;5076486;28;20016;-68
2023/10/14 11:36:02;;;;;;;;;;;;;;;-144.99;97.18;52556.13;5081747;28;20046;-68
2023/10/14 11:38:30;;;;;;;;;;;;;;;-144.99;95.49;52562.25;5084730;28;19975;-67
2023/10/14 11:40:58;;;;;;;;;;;;;;;-144.99;91.13;52323.75;5071202;28;20019;-68
2023/10/14 11:43:25;;;;;;;;;;;;;;;-144.99;83.89;52395.09;5078176;28;19924;-68
2023/10/14 11:45:55;;;;;;;;;;;;;;;-144.99;77.64;52289.13;5071914;28;19975;-68
2023/10/14 11:48:23;;;;;;;;;;;;;;;-144.99;73.89;52293.19;5075331;28;19934;-69
2023/10/14 11:50:52;;;;;;;;;;;;;;;-144.99;71.14;52266.69;5079489;28;20073;-68
2023/10/14 11:53:22;;;;;;;;;;;;;;;-144.99;69.50;52305.41;5076547;28;19966;-69
2023/10/14 11:55:49;;;;;;;;;;;;;;;-144.99;67.16;52240.19;5078300;28;20427;-69
2023/10/14 11:58:16;;;;;;;;;;;;;;;-144.99;66.70;52211.66;5082829;28;20376;-69
2023/10/14 12:00:42;;;;;;;;;;;;;;;-144.99;66.55;52256.50;5087189;28;19924;-68
2023/10/14 12:03:13;;;;;;;;;;;;;;;-144.99;65.41;52244.28;5080581;28;20091;-69
2023/10/14 12:05:39;;;;;;;;;;;;;;;-144.99;65.29;52236.13;5082117;28;19978;-70
2023/10/14 12:08:08;;;;;;;;;;;;;;;-144.99;66.15;52244.28;5077537;28;19924;-69
2023/10/14 12:10:34;;;;;;;;;;;;;;;-144.99;65.44;52240.19;5079299;28;19936;-69
2023/10/14 12:13:00;;;;;;;;;;;;;;;-144.99;65.41;52278.91;5085811;28;20023;-68
2023/10/14 12:15:28;;;;;;;;;;;;;;;-144.99;64.21;52252.44;5077269;28;19967;-71
2023/10/14 12:17:55;;;;;;;;;;;;;;;-144.99;63.48;52268.72;5085490;28;19936;-69
2023/10/14 12:20:24;;;;;;;;;;;;;;;-144.99;64.80;52256.50;5085743;28;19924;-70
2023/10/14 12:22:51;;;;;;;;;;;;;;;-144.99;66.71;52427.72;5082193;28;19931;-70
2023/10/14 12:25:18;;;;;;;;;;;;;;;-144.99;69.20;52444.03;5082608;28;20419;-70
2023/10/14 12:27:44;;;;;;;;;;;;;;;-144.99;71.86;52480.72;5082969;28;19928;-70
2023/10/14 12:30:28;;;;;;;;;;;;;;;-144.99;70.30;52497.00;5079722;28;20522;-70
2023/10/14 12:32:54;;;;;;;;;;;;;;;-144.99;71.62;52529.63;5083585;28;20474;-67